sensor_id;sensor_type;location;lat;lon;timestamp;pressure;altitude;pressure_sealevel;temperature;humidity
62544;BME280;48597;49.030;1.822;2023-02-22T00:01:03;100542.19;;;19.61;39.16
62544;BME280;48597;49.030;1.822;2023-02-22T00:03:32;100547.44;;;19.63;39.15
62544;BME280;48597;49.030;1.822;2023-02-22T00:05:59;100531.56;;;19.62;39.11
62544;BME280;48597;49.030;1.822;2023-02-22T00:08:29;100529.94;;;19.61;39.11
62544;BME280;48597;49.030;1.822;2023-02-22T00:11:01;100540.59;;;19.60;39.07
62544;BME280;48597;49.030;1.822;2023-02-22T00:13:27;100532.50;;;19.59;38.88
62544;BME280;48597;49.030;1.822;2023-02-22T00:15:53;100531.69;;;19.58;38.97
62544;BME280;48597;49.030;1.822;2023-02-22T00:18:18;100529.28;;;19.57;39.07
62544;BME280;48597;49.030;1.822;2023-02-22T00:20:44;100525.63;;;19.56;39.07
62544;BME280;48597;49.030;1.822;2023-02-22T00:23:14;100516.59;;;19.58;39.03
62544;BME280;48597;49.030;1.822;2023-02-22T00:25:39;100518.50;;;19.61;38.92
62544;BME280;48597;49.030;1.822;2023-02-22T00:28:05;100511.09;;;19.63;38.99
62544;BME280;48597;49.030;1.822;2023-02-22T00:30:30;100504.13;;;19.65;38.93
62544;BME280;48597;49.030;1.822;2023-02-22T00:32:56;100501.25;;;19.65;38.92
62544;BME280;48597;49.030;1.822;2023-02-22T00:35:24;100489.81;;;19.65;39.02
62544;BME280;48597;49.030;1.822;2023-02-22T00:37:50;100490.50;;;19.69;38.96
62544;BME280;48597;49.030;1.822;2023-02-22T00:40:17;100490.50;;;19.69;38.95
62544;BME280;48597;49.030;1.822;2023-02-22T00:42:43;100487.66;;;19.69;38.98
62544;BME280;48597;49.030;1.822;2023-02-22T00:45:08;100481.34;;;19.74;38.79
62544;BME280;48597;49.030;1.822;2023-02-22T00:47:33;100476.09;;;19.72;38.90
62544;BME280;48597;49.030;1.822;2023-02-22T00:49:59;100476.66;;;19.80;38.68
62544;BME280;48597;49.030;1.822;2023-02-22T00:52:25;100470.81;;;19.83;38.73
62544;BME280;48597;49.030;1.822;2023-02-22T00:54:53;100464.66;;;19.85;38.83
62544;BME280;48597;49.030;1.822;2023-02-22T00:57:19;100464.03;;;19.90;38.74
62544;BME280;48597;49.030;1.822;2023-02-22T00:59:45;100463.25;;;19.89;38.70
62544;BME280;48597;49.030;1.822;2023-02-22T01:02:10;100463.47;;;19.95;38.62
62544;BME280;48597;49.030;1.822;2023-02-22T01:04:37;100460.25;;;19.93;38.74
62544;BME280;48597;49.030;1.822;2023-02-22T01:07:02;100467.03;;;19.99;38.62
62544;BME280;48597;49.030;1.822;2023-02-22T01:09:28;100467.31;;;20.01;38.54
62544;BME280;48597;49.030;1.822;2023-02-22T01:11:54;100450.84;;;20.05;38.52
62544;BME280;48597;49.030;1.822;2023-02-22T01:14:19;100446.84;;;20.03;38.62
62544;BME280;48597;49.030;1.822;2023-02-22T01:16:45;100454.84;;;20.08;38.51
62544;BME280;48597;49.030;1.822;2023-02-22T01:19:10;100451.19;;;20.07;38.44
62544;BME280;48597;49.030;1.822;2023-02-22T01:21:36;100454.25;;;20.13;38.42
62544;BME280;48597;49.030;1.822;2023-02-22T01:24:01;100458.97;;;20.07;38.62
62544;BME280;48597;49.030;1.822;2023-02-22T01:26:26;100457.38;;;20.06;38.68
62544;BME280;48597;49.030;1.822;2023-02-22T01:28:52;100472.47;;;20.06;38.77
62544;BME280;48597;49.030;1.822;2023-02-22T01:31:17;100461.84;;;20.07;38.59
62544;BME280;48597;49.030;1.822;2023-02-22T01:33:44;100467.09;;;20.08;38.63
62544;BME280;48597;49.030;1.822;2023-02-22T01:36:09;100464.22;;;20.08;38.85
62544;BME280;48597;49.030;1.822;2023-02-22T01:38:35;100460.56;;;20.08;38.69
62544;BME280;48597;49.030;1.822;2023-02-22T01:41:00;100460.22;;;20.06;38.78
62544;BME280;48597;49.030;1.822;2023-02-22T01:43:27;100457.72;;;20.08;38.79
62544;BME280;48597;49.030;1.822;2023-02-22T01:48:35;100457.25;;;20.09;38.51
62544;BME280;48597;49.030;1.822;2023-02-22T01:51:11;100457.59;;;20.11;38.67
62544;BME280;48597;49.030;1.822;2023-02-22T01:53:42;100467.63;;;20.16;38.75
62544;BME280;48597;49.030;1.822;2023-02-22T01:56:09;100453.94;;;20.11;38.65
62544;BME280;48597;49.030;1.822;2023-02-22T01:58:36;100456.34;;;20.12;38.78
62544;BME280;48597;49.030;1.822;2023-02-22T02:01:02;100450.47;;;20.16;38.56
62544;BME280;48597;49.030;1.822;2023-02-22T02:03:28;100450.94;;;20.14;38.55
62544;BME280;48597;49.030;1.822;2023-02-22T02:05:55;100443.94;;;20.15;38.63
62544;BME280;48597;49.030;1.822;2023-02-22T02:10:59;100454.94;;;20.17;38.55
62544;BME280;48597;49.030;1.822;2023-02-22T02:13:25;100450.81;;;20.18;38.51
62544;BME280;48597;49.030;1.822;2023-02-22T02:15:52;100448.41;;;20.16;38.55
62544;BME280;48597;49.030;1.822;2023-02-22T02:18:19;100443.03;;;20.18;38.52
62544;BME280;48597;49.030;1.822;2023-02-22T02:28:46;100427.44;;;20.19;38.46
62544;BME280;48597;49.030;1.822;2023-02-22T02:34:08;100409.03;;;20.20;38.34
62544;BME280;48597;49.030;1.822;2023-02-22T02:38:58;100403.38;;;20.29;38.26
62544;BME280;48597;49.030;1.822;2023-02-22T02:41:32;100405.44;;;20.29;38.28
62544;BME280;48597;49.030;1.822;2023-02-22T02:44:13;100404.97;;;20.30;38.37
62544;BME280;48597;49.030;1.822;2023-02-22T02:46:45;100405.75;;;20.31;38.38
62544;BME280;48597;49.030;1.822;2023-02-22T02:49:18;100412.75;;;20.30;38.36
62544;BME280;48597;49.030;1.822;2023-02-22T02:51:47;100407.03;;;20.30;38.19
62544;BME280;48597;49.030;1.822;2023-02-22T02:54:14;100410.22;;;20.32;38.11
62544;BME280;48597;49.030;1.822;2023-02-22T02:56:40;100415.50;;;20.33;38.26
62544;BME280;48597;49.030;1.822;2023-02-22T02:59:26;100410.22;;;20.32;38.24
62544;BME280;48597;49.030;1.822;2023-02-22T03:09:55;100388.59;;;20.31;38.10
62544;BME280;48597;49.030;1.822;2023-02-22T03:12:37;100388.59;;;20.31;38.19
62544;BME280;48597;49.030;1.822;2023-02-22T03:15:11;100390.66;;;20.30;38.29
62544;BME280;48597;49.030;1.822;2023-02-22T03:17:52;100389.72;;;20.33;38.27
62544;BME280;48597;49.030;1.822;2023-02-22T03:20:21;100389.72;;;20.33;38.06
62544;BME280;48597;49.030;1.822;2023-02-22T03:25:45;100392.13;;;20.35;38.16
62544;BME280;48597;49.030;1.822;2023-02-22T03:28:14;100389.72;;;20.33;38.01
62544;BME280;48597;49.030;1.822;2023-02-22T03:30:43;100384.81;;;20.34;37.99
62544;BME280;48597;49.030;1.822;2023-02-22T03:33:12;100378.75;;;20.32;38.02
62544;BME280;48597;49.030;1.822;2023-02-22T03:35:44;100399.56;;;20.32;38.17
62544;BME280;48597;49.030;1.822;2023-02-22T03:38:12;100392.13;;;20.35;38.33
62544;BME280;48597;49.030;1.822;2023-02-22T03:40:40;100390.91;;;20.36;38.22
62544;BME280;48597;49.030;1.822;2023-02-22T03:43:09;100385.59;;;20.34;37.95
62544;BME280;48597;49.030;1.822;2023-02-22T03:45:37;100385.59;;;20.34;38.17
62544;BME280;48597;49.030;1.822;2023-02-22T03:48:10;100393.75;;;20.36;38.04
62544;BME280;48597;49.030;1.822;2023-02-22T03:50:39;100394.19;;;20.34;37.87
62544;BME280;48597;49.030;1.822;2023-02-22T03:53:04;100392.59;;;20.33;38.09
62544;BME280;48597;49.030;1.822;2023-02-22T03:55:31;100382.75;;;20.34;37.98
62544;BME280;48597;49.030;1.822;2023-02-22T03:57:58;100376.22;;;20.34;38.01
62544;BME280;48597;49.030;1.822;2023-02-22T04:00:25;100372.91;;;20.36;37.92
62544;BME280;48597;49.030;1.822;2023-02-22T04:02:50;100371.66;;;20.37;37.97
62544;BME280;48597;49.030;1.822;2023-02-22T04:05:16;100368.78;;;20.37;37.72
62544;BME280;48597;49.030;1.822;2023-02-22T04:07:42;100362.72;;;20.34;37.79
62544;BME280;48597;49.030;1.822;2023-02-22T04:10:08;100377.03;;;20.34;37.96
62544;BME280;48597;49.030;1.822;2023-02-22T04:12:34;100374.53;;;20.37;37.94
62544;BME280;48597;49.030;1.822;2023-02-22T04:15:00;100368.00;;;20.36;37.75
62544;BME280;48597;49.030;1.822;2023-02-22T04:17:25;100370.88;;;20.36;37.88
62544;BME280;48597;49.030;1.822;2023-02-22T04:19:50;100373.34;;;20.34;37.87
62544;BME280;48597;49.030;1.822;2023-02-22T04:22:16;100375.78;;;20.36;37.83
62544;BME280;48597;49.030;1.822;2023-02-22T04:24:41;100372.91;;;20.36;37.73
62544;BME280;48597;49.030;1.822;2023-02-22T04:27:07;100377.81;;;20.35;37.72
62544;BME280;48597;49.030;1.822;2023-02-22T04:29:33;100384.38;;;20.36;37.67
62544;BME280;48597;49.030;1.822;2023-02-22T04:31:58;100378.66;;;20.36;37.97
62544;BME280;48597;49.030;1.822;2023-02-22T04:34:23;100377.81;;;20.35;37.80
62544;BME280;48597;49.030;1.822;2023-02-22T04:36:48;100373.72;;;20.36;37.73
62544;BME280;48597;49.030;1.822;2023-02-22T04:39:14;100374.16;;;20.34;37.74
62544;BME280;48597;49.030;1.822;2023-02-22T04:41:39;100387.22;;;20.36;37.96
62544;BME280;48597;49.030;1.822;2023-02-22T04:44:04;100385.97;;;20.37;37.71
62544;BME280;48597;49.030;1.822;2023-02-22T04:46:29;100374.16;;;20.34;37.85
62544;BME280;48597;49.030;1.822;2023-02-22T04:48:55;100377.03;;;20.34;37.71
62544;BME280;48597;49.030;1.822;2023-02-22T04:51:21;100378.19;;;20.37;37.89
62544;BME280;48597;49.030;1.822;2023-02-22T04:53:46;100370.41;;;20.38;37.73
62544;BME280;48597;49.030;1.822;2023-02-22T04:56:12;100375.31;;;20.37;37.79
62544;BME280;48597;49.030;1.822;2023-02-22T04:58:37;100370.41;;;20.38;37.70
62544;BME280;48597;49.030;1.822;2023-02-22T05:01:03;100372.75;;;20.39;37.82
62544;BME280;48597;49.030;1.822;2023-02-22T05:03:29;100386.78;;;20.37;37.68
62544;BME280;48597;49.030;1.822;2023-02-22T05:05:54;100388.84;;;20.37;37.76
62544;BME280;48597;49.030;1.822;2023-02-22T05:08:22;100393.75;;;20.36;37.75
62544;BME280;48597;49.030;1.822;2023-02-22T05:10:48;100381.50;;;20.36;37.66
62544;BME280;48597;49.030;1.822;2023-02-22T05:13:13;100386.41;;;20.35;37.82
62544;BME280;48597;49.030;1.822;2023-02-22T05:15:38;100378.97;;;20.38;37.65
62544;BME280;48597;49.030;1.822;2023-02-22T05:18:03;100375.31;;;20.37;37.73
62544;BME280;48597;49.030;1.822;2023-02-22T05:20:31;100376.13;;;20.38;37.80
62544;BME280;48597;49.030;1.822;2023-02-22T05:22:57;100371.97;;;20.39;37.60
62544;BME280;48597;49.030;1.822;2023-02-22T05:25:23;100378.97;;;20.38;37.63
62544;BME280;48597;49.030;1.822;2023-02-22T05:27:56;100389.13;;;20.39;37.57
62544;BME280;48597;49.030;1.822;2023-02-22T05:30:23;100387.88;;;20.40;37.75
62544;BME280;48597;49.030;1.822;2023-02-22T05:32:49;100384.38;;;20.36;37.61
62544;BME280;48597;49.030;1.822;2023-02-22T05:35:15;100381.84;;;20.38;37.71
62544;BME280;48597;49.030;1.822;2023-02-22T05:37:40;100380.56;;;20.39;37.34
62544;BME280;48597;49.030;1.822;2023-02-22T05:40:05;100383.09;;;20.37;37.72
62544;BME280;48597;49.030;1.822;2023-02-22T05:42:31;100379.44;;;20.36;37.77
62544;BME280;48597;49.030;1.822;2023-02-22T05:44:57;100376.59;;;20.36;37.73
62544;BME280;48597;49.030;1.822;2023-02-22T05:47:23;100396.63;;;20.36;37.48
62544;BME280;48597;49.030;1.822;2023-02-22T05:49:49;100389.13;;;20.39;37.63
62544;BME280;48597;49.030;1.822;2023-02-22T05:52:14;100381.03;;;20.37;37.55
62544;BME280;48597;49.030;1.822;2023-02-22T05:54:40;100385.97;;;20.37;37.63
62544;BME280;48597;49.030;1.822;2023-02-22T05:57:05;100385.16;;;20.36;37.71
62544;BME280;48597;49.030;1.822;2023-02-22T05:59:30;100391.69;;;20.37;37.50
62544;BME280;48597;49.030;1.822;2023-02-22T06:01:56;100398.31;;;20.33;37.50
62544;BME280;48597;49.030;1.822;2023-02-22T06:04:21;100402.34;;;20.36;37.68
62544;BME280;48597;49.030;1.822;2023-02-22T06:06:46;100398.31;;;20.33;37.48
62544;BME280;48597;49.030;1.822;2023-02-22T06:09:11;100401.97;;;20.34;37.60
62544;BME280;48597;49.030;1.822;2023-02-22T06:11:37;100396.25;;;20.34;37.66
62544;BME280;48597;49.030;1.822;2023-02-22T06:14:02;100390.09;;;20.36;37.52
62544;BME280;48597;49.030;1.822;2023-02-22T06:16:29;100390.09;;;20.36;37.58
62544;BME280;48597;49.030;1.822;2023-02-22T06:18:55;100389.25;;;20.35;37.56
62544;BME280;48597;49.030;1.822;2023-02-22T06:21:21;100383.53;;;20.35;37.60
62544;BME280;48597;49.030;1.822;2023-02-22T06:23:46;100399.47;;;20.36;37.47
62544;BME280;48597;49.030;1.822;2023-02-22T06:26:14;100403.94;;;20.37;37.64
62544;BME280;48597;49.030;1.822;2023-02-22T06:28:39;100406.00;;;20.37;37.57
62544;BME280;48597;49.030;1.822;2023-02-22T06:31:04;100391.31;;;20.34;37.44
62544;BME280;48597;49.030;1.822;2023-02-22T06:33:31;100380.69;;;20.35;37.52
62544;BME280;48597;49.030;1.822;2023-02-22T06:35:56;100379.88;;;20.34;37.79
62544;BME280;48597;49.030;1.822;2023-02-22T06:38:22;100374.16;;;20.34;37.59
62544;BME280;48597;49.030;1.822;2023-02-22T06:40:48;100386.88;;;20.33;37.38
62544;BME280;48597;49.030;1.822;2023-02-22T06:43:13;100385.25;;;20.32;37.57
62544;BME280;48597;49.030;1.822;2023-02-22T06:45:38;100380.34;;;20.33;37.41
62544;BME280;48597;49.030;1.822;2023-02-22T06:48:03;100391.00;;;20.32;37.62
62544;BME280;48597;49.030;1.822;2023-02-22T06:50:29;100400.84;;;20.31;37.36
62544;BME280;48597;49.030;1.822;2023-02-22T06:52:55;100404.16;;;20.30;37.55
62544;BME280;48597;49.030;1.822;2023-02-22T06:55:22;100411.03;;;20.32;37.62
62544;BME280;48597;49.030;1.822;2023-02-22T06:57:48;100419.63;;;20.32;37.40
62544;BME280;48597;49.030;1.822;2023-02-22T07:00:14;100413.09;;;20.32;37.51
62544;BME280;48597;49.030;1.822;2023-02-22T07:02:40;100404.03;;;20.33;37.46
62544;BME280;48597;49.030;1.822;2023-02-22T07:05:06;100408.16;;;20.32;37.55
62544;BME280;48597;49.030;1.822;2023-02-22T07:07:31;100408.06;;;20.36;37.47
62544;BME280;48597;49.030;1.822;2023-02-22T07:09:57;100404.41;;;20.36;37.53
62544;BME280;48597;49.030;1.822;2023-02-22T07:12:23;100405.63;;;20.34;37.50
62544;BME280;48597;49.030;1.822;2023-02-22T07:14:49;100423.97;;;20.37;37.42
62544;BME280;48597;49.030;1.822;2023-02-22T07:17:14;100432.09;;;20.39;37.49
62544;BME280;48597;49.030;1.822;2023-02-22T07:19:39;100429.91;;;20.43;37.40
62544;BME280;48597;49.030;1.822;2023-02-22T07:22:04;100439.41;;;20.40;37.48
62544;BME280;48597;49.030;1.822;2023-02-22T07:24:30;100434.47;;;20.40;37.49
62544;BME280;48597;49.030;1.822;2023-02-22T07:26:55;100436.88;;;20.42;37.49
62544;BME280;48597;49.030;1.822;2023-02-22T07:29:20;100448.78;;;20.40;37.27
62544;BME280;48597;49.030;1.822;2023-02-22T07:31:46;100449.59;;;20.41;37.38
62544;BME280;48597;49.030;1.822;2023-02-22T07:34:11;100459.44;;;20.40;37.46
62544;BME280;48597;49.030;1.822;2023-02-22T07:36:37;100455.31;;;20.41;37.25
62544;BME280;48597;49.030;1.822;2023-02-22T07:39:02;100454.84;;;20.42;37.29
62544;BME280;48597;49.030;1.822;2023-02-22T07:41:27;100446.38;;;20.39;37.38
62544;BME280;48597;49.030;1.822;2023-02-22T07:43:52;100452.13;;;20.39;37.28
62544;BME280;48597;49.030;1.822;2023-02-22T07:46:18;100467.22;;;20.39;37.32
62544;BME280;48597;49.030;1.822;2023-02-22T07:48:43;100468.84;;;20.40;37.22
62544;BME280;48597;49.030;1.822;2023-02-22T07:51:08;100472.84;;;20.43;37.48
62544;BME280;48597;49.030;1.822;2023-02-22T07:53:35;100472.03;;;20.42;37.37
62544;BME280;48597;49.030;1.822;2023-02-22T07:56:01;100465.16;;;20.40;37.37
62544;BME280;48597;49.030;1.822;2023-02-22T07:58:28;100474.25;;;20.38;37.33
62544;BME280;48597;49.030;1.822;2023-02-22T08:00:54;100472.66;;;20.37;37.29
62544;BME280;48597;49.030;1.822;2023-02-22T08:03:21;100467.22;;;20.39;37.29
62544;BME280;48597;49.030;1.822;2023-02-22T08:05:53;100455.47;;;20.37;37.29
62544;BME280;48597;49.030;1.822;2023-02-22T08:08:18;100470.91;;;20.40;37.40
62544;BME280;48597;49.030;1.822;2023-02-22T08:10:44;100473.44;;;20.38;37.38
62544;BME280;48597;49.030;1.822;2023-02-22T08:13:09;100466.13;;;20.37;37.29
62544;BME280;48597;49.030;1.822;2023-02-22T08:15:36;100473.09;;;20.36;37.32
62544;BME280;48597;49.030;1.822;2023-02-22T08:18:03;100480.06;;;20.34;37.27
62544;BME280;48597;49.030;1.822;2023-02-22T08:20:29;100467.00;;;20.33;37.42
62544;BME280;48597;49.030;1.822;2023-02-22T08:22:54;100479.25;;;20.34;37.41
62544;BME280;48597;49.030;1.822;2023-02-22T08:25:22;100477.31;;;20.31;37.29
62544;BME280;48597;49.030;1.822;2023-02-22T08:27:49;100476.06;;;20.32;37.25
62544;BME280;48597;49.030;1.822;2023-02-22T08:30:19;100473.31;;;20.28;37.37
62544;BME280;48597;49.030;1.822;2023-02-22T08:32:45;100472.97;;;20.26;37.32
62544;BME280;48597;49.030;1.822;2023-02-22T08:35:10;100467.25;;;20.26;37.41
62544;BME280;48597;49.030;1.822;2023-02-22T08:37:40;100469.00;;;20.24;37.33
62544;BME280;48597;49.030;1.822;2023-02-22T08:40:06;100476.31;;;20.25;37.46
62544;BME280;48597;49.030;1.822;2023-02-22T08:42:31;100481.38;;;20.21;37.40
62544;BME280;48597;49.030;1.822;2023-02-22T08:44:56;100474.97;;;20.17;37.44
62544;BME280;48597;49.030;1.822;2023-02-22T08:47:22;100480.81;;;20.13;37.44
62544;BME280;48597;49.030;1.822;2023-02-22T08:49:47;100479.22;;;20.12;37.45
62544;BME280;48597;49.030;1.822;2023-02-22T08:52:12;100472.72;;;20.12;37.49
62544;BME280;48597;49.030;1.822;2023-02-22T08:54:37;100474.75;;;20.11;37.51
62544;BME280;48597;49.030;1.822;2023-02-22T08:57:04;100480.94;;;20.10;37.44
62544;BME280;48597;49.030;1.822;2023-02-22T08:59:30;100482.19;;;20.09;37.52
62544;BME280;48597;49.030;1.822;2023-02-22T09:01:55;100479.34;;;20.09;37.60
62544;BME280;48597;49.030;1.822;2023-02-22T09:04:20;100482.19;;;20.09;37.64
62544;BME280;48597;49.030;1.822;2023-02-22T09:06:45;100483.47;;;20.08;37.54
62544;BME280;48597;49.030;1.822;2023-02-22T09:09:16;100489.19;;;20.08;37.74
62544;BME280;48597;49.030;1.822;2023-02-22T09:11:44;100495.38;;;20.06;37.50
62544;BME280;48597;49.030;1.822;2023-02-22T09:14:09;100501.09;;;20.06;37.70
62544;BME280;48597;49.030;1.822;2023-02-22T09:16:35;100513.34;;;20.07;37.75
62544;BME280;48597;49.030;1.822;2023-02-22T09:19:02;100517.91;;;20.04;37.86
62544;BME280;48597;49.030;1.822;2023-02-22T09:21:27;100513.78;;;20.05;37.78
62544;BME280;48597;49.030;1.822;2023-02-22T09:23:53;100508.06;;;20.05;37.99
62544;BME280;48597;49.030;1.822;2023-02-22T09:26:20;100516.31;;;20.03;38.15
62544;BME280;48597;49.030;1.822;2023-02-22T09:28:47;100515.97;;;20.01;38.18
62544;BME280;48597;49.030;1.822;2023-02-22T09:31:12;100512.31;;;20.01;38.07
62544;BME280;48597;49.030;1.822;2023-02-22T09:33:38;100512.31;;;20.01;38.28
62544;BME280;48597;49.030;1.822;2023-02-22T09:36:05;100516.41;;;19.99;38.25
62544;BME280;48597;49.030;1.822;2023-02-22T09:38:30;100506.72;;;19.97;38.27
62544;BME280;48597;49.030;1.822;2023-02-22T09:41:07;100495.28;;;19.97;38.31
62544;BME280;48597;49.030;1.822;2023-02-22T09:43:46;100505.13;;;19.96;38.41
62544;BME280;48597;49.030;1.822;2023-02-22T09:46:17;100519.09;;;19.94;38.45
62544;BME280;48597;49.030;1.822;2023-02-22T09:51:24;100499.50;;;19.92;38.49
62544;BME280;48597;49.030;1.822;2023-02-22T09:53:52;100495.06;;;19.91;38.41
62544;BME280;48597;49.030;1.822;2023-02-22T09:56:20;100501.22;;;19.90;38.25
62544;BME280;48597;49.030;1.822;2023-02-22T09:58:47;100496.75;;;19.89;38.43
62544;BME280;48597;49.030;1.822;2023-02-22T10:06:25;100480.84;;;19.88;38.67
62544;BME280;48597;49.030;1.822;2023-02-22T10:08:51;100490.69;;;19.87;38.56
62544;BME280;48597;49.030;1.822;2023-02-22T10:13:52;100495.97;;;19.88;38.71
62544;BME280;48597;49.030;1.822;2023-02-22T10:16:39;100493.56;;;19.87;38.58
62544;BME280;48597;49.030;1.822;2023-02-22T10:26:50;100498.03;;;19.88;38.63
62544;BME280;48597;49.030;1.822;2023-02-22T10:32:14;100505.34;;;19.89;38.71
62544;BME280;48597;49.030;1.822;2023-02-22T10:34:43;100503.28;;;19.89;38.80
62544;BME280;48597;49.030;1.822;2023-02-22T10:39:35;100509.81;;;19.90;38.90
62544;BME280;48597;49.030;1.822;2023-02-22T10:42:03;100501.22;;;19.90;38.77
62544;BME280;48597;49.030;1.822;2023-02-22T10:44:32;100507.75;;;19.90;38.85
62544;BME280;48597;49.030;1.822;2023-02-22T10:46:58;100502.47;;;19.89;38.81
62544;BME280;48597;49.030;1.822;2023-02-22T10:49:25;100512.66;;;19.90;39.04
62544;BME280;48597;49.030;1.822;2023-02-22T10:52:01;100501.22;;;19.90;38.96
62544;BME280;48597;49.030;1.822;2023-02-22T10:54:33;100490.59;;;19.90;39.10
62544;BME280;48597;49.030;1.822;2023-02-22T10:57:01;100488.97;;;19.89;38.94
62544;BME280;48597;49.030;1.822;2023-02-22T10:59:32;100488.53;;;19.91;38.93
62544;BME280;48597;49.030;1.822;2023-02-22T11:01:58;100502.81;;;19.91;39.02
